Time;durP1;ratioP1;P1;durP2;ratioP2;P2;SDS_P1;SDS_P2;PMS_P1;PMS_P2;Temp;Humidity;BMP_temperature;BMP_pressure;BME280_temperature;BME280_humidity;BME280_pressure;Samples;Min_cycle;Max_cycle;Signal;HPM_P1;HPM_P2
2023/05/07 00:01:16;;;;;;;4.83;4.43;;;15.10;99.90;;;;;;4955307;29;20663;-74
2023/05/07 00:03:42;;;;;;;5.13;4.73;;;15.00;99.90;;;;;;4955208;29;20263;-74
2023/05/07 00:06:07;;;;;;;5.47;5.10;;;14.90;99.90;;;;;;4955140;28;20204;-74
2023/05/07 00:08:33;;;;;;;5.20;4.70;;;14.90;99.90;;;;;;4954714;29;20231;-74
2023/05/07 00:10:58;;;;;;;6.17;5.13;;;14.90;99.90;;;;;;4955240;29;20197;-74
2023/05/07 00:13:24;;;;;;;5.23;4.83;;;14.90;99.90;;;;;;4955004;29;20520;-74
2023/05/07 00:15:49;;;;;;;15.83;6.13;;;14.90;99.90;;;;;;4954988;28;20198;-75
2023/05/07 00:18:15;;;;;;;5.73;5.27;;;14.80;99.90;;;;;;4954465;29;20209;-74
2023/05/07 00:20:41;;;;;;;5.63;5.13;;;14.80;99.90;;;;;;4954957;28;20542;-74
2023/05/07 00:23:06;;;;;;;5.33;4.83;;;14.70;99.90;;;;;;4954972;29;20428;-74
2023/05/07 00:25:32;;;;;;;4.87;4.57;;;14.60;99.90;;;;;;4955036;29;20188;-75
2023/05/07 00:28:02;;;;;;;5.70;5.30;;;14.60;99.90;;;;;;4954650;29;20212;-74
2023/05/07 00:30:28;;;;;;;6.40;5.40;;;14.50;99.90;;;;;;4954568;29;20169;-74
2023/05/07 00:32:53;;;;;;;6.40;5.77;;;14.50;99.90;;;;;;4954620;28;20420;-75
2023/05/07 00:35:19;;;;;;;5.97;5.20;;;14.50;99.90;;;;;;4954865;28;20181;-74
2023/05/07 00:37:45;;;;;;;6.10;5.60;;;14.70;99.90;;;;;;4954496;29;20196;-74
2023/05/07 00:40:11;;;;;;;5.50;5.00;;;14.80;99.90;;;;;;4954416;28;20173;-73
2023/05/07 00:42:37;;;;;;;6.50;5.90;;;14.80;99.90;;;;;;4954554;29;20176;-73
2023/05/07 00:45:02;;;;;;;5.37;4.97;;;14.70;99.90;;;;;;4954482;29;20413;-74
2023/05/07 00:47:28;;;;;;;7.43;5.47;;;14.60;99.90;;;;;;4954328;29;20495;-74
2023/05/07 00:49:54;;;;;;;5.83;5.37;;;14.50;99.90;;;;;;4954103;29;20209;-74
2023/05/07 00:52:20;;;;;;;4.80;4.30;;;14.40;99.90;;;;;;4954461;29;20601;-74
2023/05/07 00:54:46;;;;;;;6.13;4.80;;;14.30;99.90;;;;;;4954349;29;20256;-74
2023/05/07 00:57:12;;;;;;;6.80;5.20;;;14.30;99.90;;;;;;4954314;29;20520;-73
2023/05/07 00:59:38;;;;;;;6.60;6.00;;;14.40;99.90;;;;;;4954065;28;20203;-75
2023/05/07 01:02:03;;;;;;;6.40;5.00;;;14.40;99.90;;;;;;4954181;29;20864;-74
2023/05/07 01:04:29;;;;;;;8.30;5.33;;;14.40;99.90;;;;;;4937018;29;20424;-74
2023/05/07 01:06:56;;;;;;;5.47;5.07;;;14.40;99.90;;;;;;4953998;29;20227;-74
2023/05/07 01:09:26;;;;;;;6.07;5.40;;;14.30;99.90;;;;;;4953821;29;20193;-74
2023/05/07 01:11:53;;;;;;;5.37;4.97;;;14.30;99.90;;;;;;4954161;29;20413;-74
2023/05/07 01:14:20;;;;;;;7.40;5.70;;;14.30;99.90;;;;;;4954079;29;20915;-74
2023/05/07 01:16:46;;;;;;;6.67;5.97;;;14.30;99.90;;;;;;4953959;29;20441;-74
2023/05/07 01:19:14;;;;;;;9.10;5.37;;;14.30;99.90;;;;;;4953864;29;20420;-74
2023/05/07 01:21:46;;;;;;;5.60;5.10;;;14.20;99.90;;;;;;4953927;29;20431;-75
2023/05/07 01:24:12;;;;;;;6.00;5.50;;;14.10;99.90;;;;;;4954088;28;20452;-75
2023/05/07 01:26:39;;;;;;;7.20;6.50;;;14.00;99.90;;;;;;4953919;29;20462;-75
2023/05/07 01:29:05;;;;;;;5.80;5.30;;;14.00;99.90;;;;;;4953592;29;20295;-74
2023/05/07 01:31:32;;;;;;;6.73;6.13;;;14.00;99.90;;;;;;4954137;29;20512;-75
2023/05/07 01:34:00;;;;;;;6.10;5.60;;;14.00;99.90;;;;;;4954104;28;20181;-75
2023/05/07 01:36:27;;;;;;;5.77;5.27;;;14.10;99.90;;;;;;4953684;29;20473;-75
2023/05/07 01:38:53;;;;;;;5.47;4.97;;;14.20;99.90;;;;;;4953573;29;20432;-73
2023/05/07 01:41:19;;;;;;;5.13;4.73;;;14.20;99.90;;;;;;4953854;29;20435;-74
2023/05/07 01:43:47;;;;;;;6.47;5.87;;;14.20;99.90;;;;;;4953723;28;20177;-75
2023/05/07 01:46:12;;;;;;;5.53;5.13;;;14.20;99.90;;;;;;4957138;29;20416;-74
2023/05/07 01:48:38;;;;;;;6.33;5.60;;;14.10;99.90;;;;;;4957400;29;20463;-74
2023/05/07 01:51:06;;;;;;;5.80;5.30;;;14.10;99.90;;;;;;4957639;29;20309;-74
2023/05/07 01:53:40;;;;;;;10.80;6.80;;;14.00;99.90;;;;;;4957557;29;20420;-74
2023/05/07 01:56:06;;;;;;;5.07;4.57;;;14.00;99.90;;;;;;4957563;29;20412;-74
2023/05/07 01:58:32;;;;;;;5.43;5.03;;;13.90;99.90;;;;;;4957088;29;20437;-74
2023/05/07 02:00:57;;;;;;;6.13;5.53;;;13.90;99.90;;;;;;4957401;29;20431;-73
2023/05/07 02:03:23;;;;;;;5.60;5.10;;;13.90;99.90;;;;;;4957398;29;20177;-74
2023/05/07 02:05:48;;;;;;;5.73;5.33;;;13.90;99.90;;;;;;4957287;29;20207;-74
2023/05/07 02:08:14;;;;;;;6.60;5.17;;;13.90;99.90;;;;;;4956845;29;20227;-73
2023/05/07 02:10:39;;;;;;;5.90;5.40;;;13.90;99.90;;;;;;4957270;28;20172;-74
2023/05/07 02:13:05;;;;;;;7.23;5.20;;;13.90;99.90;;;;;;4940323;29;20191;-74
2023/05/07 02:15:30;;;;;;;5.53;5.13;;;14.00;99.90;;;;;;4957404;29;20177;-73
2023/05/07 02:18:06;;;;;;;5.63;5.23;;;14.00;99.90;;;;;;4956993;29;20288;-74
2023/05/07 02:20:32;;;;;;;7.27;5.70;;;13.90;99.90;;;;;;4956985;29;20180;-74
2023/05/07 02:22:58;;;;;;;8.80;6.07;;;13.90;99.90;;;;;;4957083;29;20424;-75
2023/05/07 02:25:23;;;;;;;5.90;5.33;;;14.00;99.90;;;;;;4956942;29;20177;-74
2023/05/07 02:27:49;;;;;;;6.37;5.60;;;14.10;99.90;;;;;;4956836;29;20231;-74
2023/05/07 02:30:14;;;;;;;6.60;5.90;;;14.10;99.90;;;;;;4956649;29;20201;-75
2023/05/07 02:32:40;;;;;;;5.50;5.00;;;14.10;99.90;;;;;;4957023;29;20177;-74
2023/05/07 02:35:06;;;;;;;6.17;5.60;;;14.00;99.90;;;;;;4956909;29;20181;-74
2023/05/07 02:37:31;;;;;;;6.00;5.50;;;13.90;99.90;;;;;;4956704;29;20189;-75
2023/05/07 02:39:57;;;;;;;7.93;5.37;;;13.80;99.90;;;;;;4956367;29;20184;-74
2023/05/07 02:42:22;;;;;;;5.50;4.77;;;13.70;99.90;;;;;;4956775;29;20608;-74
2023/05/07 02:44:48;;;;;;;5.73;5.17;;;13.70;99.90;;;;;;4956821;29;20184;-74
2023/05/07 02:47:14;;;;;;;6.13;5.07;;;13.70;99.90;;;;;;4956545;29;20223;-74
2023/05/07 02:49:40;;;;;;;6.13;5.53;;;13.60;99.90;;;;;;4956208;29;20291;-74
2023/05/07 02:52:06;;;;;;;6.33;5.73;;;13.60;99.90;;;;;;4956564;28;20491;-74
2023/05/07 02:54:31;;;;;;;6.30;5.80;;;13.60;99.90;;;;;;4956424;29;20212;-74
2023/05/07 02:56:57;;;;;;;5.63;5.23;;;13.60;99.90;;;;;;4955418;28;20213;-75
2023/05/07 02:59:24;;;;;;;5.50;5.00;;;13.60;99.90;;;;;;4956130;29;20205;-74
2023/05/07 03:01:49;;;;;;;5.20;4.70;;;13.60;99.90;;;;;;4956395;29;20181;-74
2023/05/07 03:04:15;;;;;;;6.30;5.37;;;13.60;99.90;;;;;;4956315;29;20945;-74
2023/05/07 03:06:41;;;;;;;7.17;6.50;;;13.60;99.90;;;;;;4956159;29;20264;-74
2023/05/07 03:09:06;;;;;;;5.20;4.80;;;13.60;99.90;;;;;;4955838;29;20212;-74
2023/05/07 03:11:32;;;;;;;5.87;5.37;;;13.50;99.90;;;;;;4956543;29;20185;-74
2023/05/07 03:13:57;;;;;;;6.30;5.53;;;13.50;99.90;;;;;;4956156;29;20169;-74
2023/05/07 03:16:23;;;;;;;5.67;5.10;;;13.50;99.90;;;;;;4956160;29;20268;-74
2023/05/07 03:18:49;;;;;;;5.90;5.30;;;13.50;99.90;;;;;;4956658;29;20200;-74
2023/05/07 03:21:14;;;;;;;6.53;5.90;;;13.40;99.90;;;;;;4956207;29;20193;-74
2023/05/07 03:23:40;;;;;;;4.93;4.53;;;13.30;99.90;;;;;;4956043;29;20180;-75
2023/05/07 03:26:05;;;;;;;6.17;5.20;;;13.30;99.90;;;;;;4956465;29;20185;-74
2023/05/07 03:28:31;;;;;;;4.90;4.50;;;13.20;99.90;;;;;;4955500;29;20209;-73
2023/05/07 03:30:56;;;;;;;5.83;5.40;;;13.10;99.90;;;;;;4956020;29;20180;-75
2023/05/07 03:33:22;;;;;;;5.63;4.63;;;13.10;99.90;;;;;;4955772;29;20200;-74
2023/05/07 03:35:47;;;;;;;5.63;4.83;;;13.10;99.90;;;;;;4955781;29;20661;-73
2023/05/07 03:38:13;;;;;;;4.70;4.40;;;13.20;99.90;;;;;;4955219;29;20197;-74
2023/05/07 03:40:38;;;;;;;6.20;5.70;;;13.20;99.90;;;;;;4955888;29;20283;-74
2023/05/07 03:43:04;;;;;;;5.53;5.13;;;13.20;99.90;;;;;;4955837;29;20177;-75
2023/05/07 03:45:29;;;;;;;5.67;5.27;;;13.30;99.90;;;;;;4955579;29;20689;-75
2023/05/07 03:47:55;;;;;;;5.33;4.83;;;13.30;99.90;;;;;;4955473;29;20201;-74
2023/05/07 03:50:20;;;;;;;7.73;5.40;;;13.20;99.90;;;;;;4955336;29;20215;-74
2023/05/07 03:52:46;;;;;;;5.93;5.53;;;13.10;99.90;;;;;;4955425;29;20235;-74
2023/05/07 03:55:11;;;;;;;5.87;4.70;;;12.90;99.90;;;;;;4955468;29;20173;-74
2023/05/07 03:57:37;;;;;;;6.30;5.37;;;12.90;99.90;;;;;;4955340;29;20268;-75
2023/05/07 04:00:04;;;;;;;5.30;4.80;;;12.80;99.90;;;;;;4955057;29;20188;-75
2023/05/07 04:02:30;;;;;;;6.20;4.97;;;12.70;99.90;;;;;;4937972;29;20239;-75
2023/05/07 04:04:55;;;;;;;5.10;4.70;;;12.70;99.90;;;;;;4955251;28;20432;-74
2023/05/07 04:07:21;;;;;;;5.93;5.43;;;12.70;99.90;;;;;;4954650;28;20200;-75
2023/05/07 04:09:47;;;;;;;5.73;5.20;;;12.80;99.90;;;;;;4954790;28;20308;-74
2023/05/07 04:12:12;;;;;;;4.90;4.50;;;12.80;99.90;;;;;;4955115;29;20183;-74
2023/05/07 04:14:38;;;;;;;7.27;5.27;;;12.80;99.90;;;;;;4955067;29;20176;-75
2023/05/07 04:17:03;;;;;;;4.40;4.10;;;12.90;99.90;;;;;;4954678;29;20528;-74
2023/05/07 04:19:29;;;;;;;4.87;4.47;;;13.00;99.90;;;;;;4954831;29;20184;-75
2023/05/07 04:21:55;;;;;;;5.10;4.70;;;13.00;99.90;;;;;;4954285;28;20987;-75
2023/05/07 04:24:20;;;;;;;4.93;4.53;;;13.00;99.90;;;;;;4955005;29;20519;-75
2023/05/07 04:26:46;;;;;;;5.73;5.13;;;12.90;99.90;;;;;;4954776;29;20196;-75
2023/05/07 04:29:11;;;;;;;5.13;4.73;;;12.90;99.90;;;;;;4954436;29;20204;-75
2023/05/07 04:31:39;;;;;;;7.10;5.23;;;12.80;99.90;;;;;;4954860;29;20169;-75
2023/05/07 04:34:05;;;;;;;5.27;4.83;;;12.80;99.90;;;;;;4954829;29;20184;-74
2023/05/07 04:36:32;;;;;;;5.57;5.13;;;12.80;99.90;;;;;;4954574;28;20432;-74
2023/05/07 04:38:58;;;;;;;6.20;4.73;;;12.90;99.90;;;;;;4954331;29;20161;-74
2023/05/07 04:41:23;;;;;;;5.57;4.83;;;13.00;99.90;;;;;;4954585;29;20954;-75
2023/05/07 04:43:49;;;;;;;5.33;4.83;;;13.10;99.90;;;;;;4954642;28;20172;-75
2023/05/07 04:46:15;;;;;;;5.73;4.80;;;13.20;99.90;;;;;;4954438;29;20184;-75
2023/05/07 04:48:40;;;;;;;5.27;4.77;;;13.20;99.90;;;;;;4954161;29;20662;-74
2023/05/07 04:51:06;;;;;;;5.20;4.70;;;13.20;99.90;;;;;;4954492;28;20220;-75
2023/05/07 04:53:32;;;;;;;7.50;6.43;;;13.20;99.90;;;;;;4954429;29;20592;-74
2023/05/07 04:55:57;;;;;;;7.00;5.80;;;13.10;99.90;;;;;;4954508;29;20417;-74
2023/05/07 04:58:24;;;;;;;4.70;4.03;;;13.10;99.90;;;;;;4954092;29;20248;-74
2023/05/07 05:00:49;;;;;;;5.30;4.90;;;13.10;99.90;;;;;;4954180;29;20420;-74
2023/05/07 05:03:15;;;;;;;5.63;4.93;;;13.10;99.90;;;;;;4954266;29;20496;-74
2023/05/07 05:05:40;;;;;;;5.57;4.47;;;13.10;99.90;;;;;;4954138;29;20177;-74
2023/05/07 05:08:06;;;;;;;6.30;5.30;;;13.20;99.90;;;;;;4954113;29;20215;-75
2023/05/07 05:10:32;;;;;;;5.70;5.20;;;13.20;99.90;;;;;;4954111;29;20203;-75
2023/05/07 05:12:57;;;;;;;6.90;4.80;;;13.20;99.90;;;;;;4954354;29;20169;-74
2023/05/07 05:15:23;;;;;;;5.37;4.87;;;13.40;99.90;;;;;;4954089;29;20540;-75
2023/05/07 05:17:48;;;;;;;6.53;5.63;;;13.50;99.90;;;;;;4954427;28;20208;-74
2023/05/07 05:20:14;;;;;;;5.60;5.20;;;13.70;99.90;;;;;;4935945;29;20177;-74
2023/05/07 05:22:40;;;;;;;5.50;5.00;;;13.80;99.90;;;;;;4954081;29;20172;-73
2023/05/07 05:25:06;;;;;;;5.67;4.97;;;13.80;99.90;;;;;;4954322;29;20635;-73
2023/05/07 05:27:31;;;;;;;5.80;5.10;;;13.90;99.90;;;;;;4953912;29;20444;-73
2023/05/07 05:29:57;;;;;;;5.53;5.00;;;14.00;99.90;;;;;;4953563;29;20275;-73
2023/05/07 05:32:22;;;;;;;5.03;4.63;;;14.30;99.90;;;;;;4953972;29;20730;-73
2023/05/07 05:34:48;;;;;;;5.70;5.20;;;14.60;99.90;;;;;;4953871;29;20180;-74
2023/05/07 05:37:13;;;;;;;6.27;5.63;;;14.90;99.90;;;;;;4954060;29;20201;-74
2023/05/07 05:39:39;;;;;;;5.53;5.03;;;15.20;99.90;;;;;;4953725;29;20181;-73
2023/05/07 05:42:04;;;;;;;5.17;4.63;;;15.50;99.90;;;;;;4953862;29;20659;-74
2023/05/07 05:44:30;;;;;;;5.53;5.03;;;15.70;99.90;;;;;;4953832;28;20183;-73
2023/05/07 05:46:57;;;;;;;6.10;5.23;;;16.00;99.90;;;;;;4953720;28;20197;-73
2023/05/07 05:49:23;;;;;;;7.40;5.33;;;16.20;99.90;;;;;;4953333;29;20885;-74
2023/05/07 05:51:48;;;;;;;5.60;5.17;;;16.40;99.90;;;;;;4953754;29;20417;-73
2023/05/07 05:54:14;;;;;;;5.07;4.67;;;16.60;99.90;;;;;;4953900;29;20282;-73
2023/05/07 05:56:41;;;;;;;5.43;4.10;;;16.90;99.90;;;;;;4953650;28;20185;-74
2023/05/07 05:59:06;;;;;;;4.30;4.00;;;17.00;99.90;;;;;;4953405;29;20420;-73
2023/05/07 06:01:32;;;;;;;5.00;3.77;;;17.10;99.90;;;;;;4953601;29;20486;-74
2023/05/07 06:03:58;;;;;;;6.37;4.77;;;17.10;99.90;;;;;;4953606;29;20192;-74
2023/05/07 06:06:23;;;;;;;4.80;4.40;;;17.20;99.90;;;;;;4953513;29;20427;-73
2023/05/07 06:08:49;;;;;;;4.50;4.10;;;17.50;99.90;;;;;;4953291;29;20275;-73
2023/05/07 06:11:15;;;;;;;5.27;4.83;;;17.60;99.90;;;;;;4953612;29;20240;-74
2023/05/07 06:13:40;;;;;;;4.90;4.40;;;17.50;99.90;;;;;;4953553;29;20201;-74
2023/05/07 06:16:06;;;;;;;5.07;4.70;;;17.30;99.90;;;;;;4953558;29;20236;-74
2023/05/07 06:18:32;;;;;;;4.40;4.00;;;17.30;99.90;;;;;;4953061;29;20245;-74
2023/05/07 06:20:57;;;;;;;6.07;4.60;;;17.20;99.90;;;;;;4953511;29;20431;-73
2023/05/07 06:23:23;;;;;;;5.43;5.03;;;17.30;99.90;;;;;;4953449;29;20181;-73
2023/05/07 06:25:50;;;;;;;4.70;4.20;;;17.10;99.90;;;;;;4953691;29;20181;-73
2023/05/07 06:28:15;;;;;;;4.90;4.30;;;17.10;99.90;;;;;;4953133;29;20209;-74
2023/05/07 06:30:41;;;;;;;5.33;4.83;;;17.30;99.90;;;;;;4954273;28;20515;-73
2023/05/07 06:33:06;;;;;;;4.90;4.50;;;17.50;99.90;;;;;;4956963;29;20224;-74
2023/05/07 06:35:32;;;;;;;4.30;4.00;;;17.50;99.90;;;;;;4956979;29;20511;-74
2023/05/07 06:37:57;;;;;;;6.20;5.60;;;17.20;99.90;;;;;;4956788;29;20197;-74
2023/05/07 06:40:23;;;;;;;8.80;5.17;;;17.00;99.90;;;;;;4956664;29;20248;-73
2023/05/07 06:42:48;;;;;;;5.63;4.90;;;16.80;99.90;;;;;;4956790;28;20580;-73
2023/05/07 06:45:14;;;;;;;5.23;4.73;;;16.70;99.90;;;;;;4956746;29;20196;-73
2023/05/07 06:47:40;;;;;;;5.63;5.17;;;16.60;99.90;;;;;;4956447;29;20189;-74
2023/05/07 06:50:06;;;;;;;7.70;6.23;;;16.60;99.90;;;;;;4956346;28;20196;-74
2023/05/07 06:52:31;;;;;;;5.67;5.07;;;16.80;99.90;;;;;;4956590;29;20173;-73
2023/05/07 06:54:57;;;;;;;5.77;5.17;;;17.10;99.90;;;;;;4956509;29;20444;-74
2023/05/07 06:57:23;;;;;;;5.43;5.03;;;17.50;99.90;;;;;;4956361;28;20556;-74
2023/05/07 06:59:49;;;;;;;5.87;5.30;;;17.80;99.90;;;;;;4956214;29;20267;-74
2023/05/07 07:02:14;;;;;;;4.83;4.53;;;18.20;99.90;;;;;;4956309;29;20492;-74
2023/05/07 07:04:41;;;;;;;4.83;4.53;;;18.60;99.90;;;;;;4956350;29;20224;-74
2023/05/07 07:07:06;;;;;;;4.90;4.50;;;18.90;99.90;;;;;;4956217;28;20195;-73
2023/05/07 07:09:31;;;;;;;5.63;4.40;;;19.10;99.90;;;;;;4955895;29;20460;-74
2023/05/07 07:11:57;;;;;;;5.70;5.20;;;19.20;99.90;;;;;;4956174;28;20169;-74
2023/05/07 07:14:22;;;;;;;5.10;4.70;;;19.00;99.90;;;;;;4956145;29;20165;-74
2023/05/07 07:16:48;;;;;;;6.13;5.47;;;18.80;99.90;;;;;;4958413;28;20675;-74
2023/05/07 07:19:15;;;;;;;5.30;4.90;;;19.00;99.90;;;;;;4955751;28;20205;-74
2023/05/07 07:21:41;;;;;;;5.63;4.93;;;19.30;99.90;;;;;;4956017;28;20228;-74
2023/05/07 07:24:06;;;;;;;6.03;5.53;;;19.30;99.90;;;;;;4965268;28;20440;-74
2023/05/07 07:26:32;;;;;;;5.50;5.10;;;19.80;99.90;;;;;;4975168;28;20454;-74
2023/05/07 07:28:57;;;;;;;5.83;5.37;;;19.90;99.90;;;;;;4974908;28;20200;-76
2023/05/07 07:31:23;;;;;;;5.40;4.90;;;19.90;99.90;;;;;;4974981;28;20238;-73
2023/05/07 07:33:50;;;;;;;6.67;6.00;;;19.90;99.90;;;;;;4975139;28;20184;-73
2023/05/07 07:36:15;;;;;;;5.97;5.00;;;20.10;99.90;;;;;;4975195;28;20172;-72
2023/05/07 07:38:41;;;;;;;5.37;4.97;;;20.30;99.90;;;;;;4974797;28;20905;-73
2023/05/07 07:41:08;;;;;;;7.90;5.93;;;20.30;99.90;;;;;;4975020;28;20176;-73
2023/05/07 07:43:34;;;;;;;6.70;4.73;;;20.20;99.90;;;;;;4974345;28;20184;-73
2023/05/07 07:45:59;;;;;;;5.63;5.03;;;20.80;99.90;;;;;;4974778;28;20428;-73
2023/05/07 07:48:25;;;;;;;4.93;4.53;;;21.10;99.90;;;;;;4974507;28;20200;-73
2023/05/07 07:50:51;;;;;;;5.37;4.97;;;21.10;99.90;;;;;;4974861;28;20172;-73
2023/05/07 07:53:17;;;;;;;5.70;5.30;;;20.90;99.90;;;;;;4974868;28;20173;-73
2023/05/07 07:55:42;;;;;;;5.17;4.80;;;20.80;99.90;;;;;;4974802;28;20617;-73
2023/05/07 07:58:08;;;;;;;6.53;5.13;;;20.90;99.90;;;;;;4974582;28;20279;-71
2023/05/07 08:00:33;;;;;;;6.67;4.87;;;20.80;99.90;;;;;;4974362;28;20259;-72
2023/05/07 08:02:59;;;;;;;4.33;3.77;;;20.90;99.90;;;;;;4974497;28;20244;-72
2023/05/07 08:05:24;;;;;;;4.80;4.40;;;21.20;99.90;;;;;;4970015;28;20184;-74
2023/05/07 08:07:53;;;;;;;4.40;4.10;;;21.60;99.90;;;;;;4960462;28;20208;-74
2023/05/07 08:10:22;;;;;;;5.13;4.63;;;21.50;99.90;;;;;;4955113;29;20197;-74
2023/05/07 08:12:48;;;;;;;5.83;4.83;;;21.30;99.90;;;;;;4955155;29;20499;-74
2023/05/07 08:15:14;;;;;;;5.53;4.43;;;21.20;99.90;;;;;;4955034;29;20417;-74
2023/05/07 08:17:40;;;;;;;4.60;4.30;;;21.10;99.90;;;;;;4954913;28;21036;-74
2023/05/07 08:20:06;;;;;;;4.10;3.70;;;21.10;99.90;;;;;;4954868;29;20173;-74
2023/05/07 08:22:32;;;;;;;4.83;4.43;;;21.20;99.90;;;;;;4955000;28;20185;-74
2023/05/07 08:24:57;;;;;;;4.40;4.03;;;21.50;99.90;;;;;;4954785;29;20435;-74
2023/05/07 08:27:23;;;;;;;4.73;4.30;;;22.00;99.90;;;;;;4965149;28;20613;-74
2023/05/07 08:29:48;;;;;;;5.30;4.80;;;22.00;99.90;;;;;;4973081;28;20215;-74
2023/05/07 08:32:14;;;;;;;4.27;3.97;;;22.50;99.90;;;;;;4973715;28;20577;-74
2023/05/07 08:34:40;;;;;;;9.30;5.40;;;22.70;99.90;;;;;;4973764;28;20179;-74
2023/05/07 08:37:05;;;;;;;4.63;4.23;;;22.60;99.90;;;;;;4973538;28;20196;-74
2023/05/07 08:39:31;;;;;;;5.00;4.60;;;22.40;99.90;;;;;;4973648;28;20175;-74
2023/05/07 08:42:00;;;;;;;4.87;4.43;;;22.30;99.90;;;;;;4973759;28;20207;-74
2023/05/07 08:44:29;;;;;;;4.60;4.13;;;22.10;99.90;;;;;;4973997;28;20246;-74
2023/05/07 08:46:58;;;;;;;4.90;4.50;;;22.10;99.90;;;;;;4973399;28;20475;-74
2023/05/07 08:49:23;;;;;;;4.30;4.00;;;22.30;99.90;;;;;;4973382;28;20467;-74
2023/05/07 08:51:49;;;;;;;4.40;4.10;;;22.40;99.90;;;;;;4973730;28;20478;-74
2023/05/07 08:54:20;;;;;;;4.83;4.53;;;22.40;99.90;;;;;;4972699;28;20169;-74
2023/05/07 08:56:45;;;;;;;4.90;4.50;;;22.60;99.90;;;;;;4973402;28;20196;-74
2023/05/07 08:59:11;;;;;;;4.10;3.90;;;22.70;99.90;;;;;;4973382;28;20963;-74
2023/05/07 09:01:36;;;;;;;5.00;3.67;;;23.10;99.90;;;;;;4973268;28;20172;-74
2023/05/07 09:04:02;;;;;;;4.23;3.93;;;23.50;99.90;;;;;;4973463;28;20720;-74
2023/05/07 09:06:28;;;;;;;4.50;4.20;;;23.80;99.90;;;;;;4973422;28;20204;-74
2023/05/07 09:08:54;;;;;;;5.93;5.40;;;23.50;99.90;;;;;;4973092;28;20191;-74
2023/05/07 09:11:22;;;;;;;5.13;4.80;;;23.60;99.90;;;;;;4973274;28;20207;-74
2023/05/07 09:13:48;;;;;;;4.47;3.87;;;24.00;99.90;;;;;;4973030;28;20420;-74
2023/05/07 09:16:14;;;;;;;4.70;4.27;;;24.40;99.90;;;;;;4973234;28;20418;-74
2023/05/07 09:18:43;;;;;;;4.73;4.40;;;24.80;99.90;;;;;;4973023;28;20194;-74
2023/05/07 09:21:15;;;;;;;6.53;4.27;;;24.60;99.90;;;;;;4973296;28;20538;-74
2023/05/07 09:23:41;;;;;;;4.43;4.10;;;24.70;99.90;;;;;;4973308;28;20424;-74
2023/05/07 09:26:11;;;;;;;5.50;4.00;;;25.50;99.90;;;;;;4973220;28;20429;-74
2023/05/07 09:28:41;;;;;;;4.43;4.03;;;26.10;98.90;;;;;;4972993;28;20802;-74
2023/05/07 09:31:08;;;;;;;5.60;4.10;;;26.20;97.60;;;;;;4973318;28;20511;-74
2023/05/07 09:33:34;;;;;;;4.73;4.43;;;26.20;96.50;;;;;;4973256;28;20493;-74
2023/05/07 09:36:06;;;;;;;5.03;4.63;;;26.30;95.80;;;;;;4973238;28;20514;-74
2023/05/07 09:38:35;;;;;;;4.50;4.20;;;26.70;94.70;;;;;;4972729;28;20462;-74
2023/05/07 09:41:10;;;;;;;3.97;3.37;;;27.80;91.80;;;;;;4973456;28;20827;-74
2023/05/07 09:43:37;;;;;;;4.63;3.10;;;27.80;89.30;;;;;;4973017;28;20765;-74
2023/05/07 09:46:13;;;;;;;4.07;3.67;;;27.80;90.90;;;;;;4973067;28;20462;-74
2023/05/07 09:48:42;;;;;;;3.90;3.60;;;27.00;90.80;;;;;;4972761;28;20475;-74
2023/05/07 09:51:21;;;;;;;3.13;2.93;;;27.50;90.10;;;;;;4973007;28;20428;-74
2023/05/07 09:53:48;;;;;;;4.47;3.90;;;27.80;88.10;;;;;;4973035;28;20764;-74
2023/05/07 09:56:15;;;;;;;3.30;3.10;;;27.70;85.30;;;;;;4973045;28;20415;-74
2023/05/07 09:58:41;;;;;;;4.07;3.77;;;27.80;89.00;;;;;;4972704;28;20941;-75
2023/05/07 10:01:07;;;;;;;3.93;3.63;;;29.40;81.40;;;;;;4972965;28;20490;-74
2023/05/07 10:03:35;;;;;;;4.30;3.47;;;29.70;80.00;;;;;;4972953;28;20431;-74
2023/05/07 10:06:00;;;;;;;3.60;3.30;;;30.90;74.30;;;;;;4974383;28;20168;-74
2023/05/07 10:08:27;;;;;;;3.13;2.87;;;31.60;69.30;;;;;;4976539;28;20481;-74
2023/05/07 10:10:52;;;;;;;3.80;3.53;;;32.00;65.70;;;;;;4976597;28;20179;-74
2023/05/07 10:13:19;;;;;;;3.80;3.47;;;31.80;63.60;;;;;;4976618;28;20922;-72
2023/05/07 10:15:44;;;;;;;4.33;3.90;;;30.00;66.90;;;;;;4976579;28;20598;-73
2023/05/07 10:18:11;;;;;;;5.70;3.27;;;29.80;67.70;;;;;;4976121;28;20459;-72
2023/05/07 10:20:38;;;;;;;3.53;3.30;;;30.10;64.80;;;;;;4976372;28;20171;-72
2023/05/07 10:23:05;;;;;;;3.10;2.90;;;31.10;63.00;;;;;;4976397;28;20415;-72
2023/05/07 10:25:32;;;;;;;3.97;3.77;;;31.50;62.10;;;;;;4976458;28;20485;-72
2023/05/07 10:28:06;;;;;;;4.33;3.93;;;31.80;61.30;;;;;;4976065;28;20467;-72
2023/05/07 10:30:37;;;;;;;3.23;2.93;;;31.00;59.50;;;;;;4976185;28;20420;-72
2023/05/07 10:33:06;;;;;;;3.30;3.10;;;31.60;59.10;;;;;;4976513;28;20411;-74
2023/05/07 10:35:40;;;;;;;3.80;3.50;;;32.60;57.30;;;;;;4976187;28;20432;-72
2023/05/07 10:38:06;;;;;;;4.00;3.70;;;34.30;53.80;;;;;;4975965;28;20443;-74
2023/05/07 10:40:32;;;;;;;4.20;3.90;;;32.20;55.80;;;;;;4975957;28;20988;-74
2023/05/07 10:43:04;;;;;;;4.50;3.20;;;32.00;55.80;;;;;;4976099;28;20420;-75
2023/05/07 10:45:31;;;;;;;3.50;3.30;;;33.30;54.80;;;;;;4976249;28;20880;-72
2023/05/07 10:48:22;;;;;;;3.10;2.90;;;33.80;52.90;;;;;;4976130;28;20443;-74
2023/05/07 10:50:48;;;;;;;3.93;3.43;;;34.40;52.00;;;;;;4972209;28;20432;-74
2023/05/07 10:53:16;;;;;;;3.20;3.00;;;34.90;50.40;;;;;;4975793;28;20486;-74
2023/05/07 10:55:42;;;;;;;3.10;2.90;;;35.70;49.00;;;;;;4975795;28;20172;-74
2023/05/07 10:58:22;;;;;;;4.93;3.00;;;35.50;47.60;;;;;;4975831;28;20495;-72
2023/05/07 11:00:49;;;;;;;3.67;2.90;;;36.00;46.50;;;;;;4975860;28;20180;-72
2023/05/07 11:03:15;;;;;;;5.03;3.50;;;36.20;45.50;;;;;;4975778;28;20782;-72
2023/05/07 11:05:41;;;;;;;3.90;3.50;;;36.80;44.10;;;;;;4975683;28;20536;-72
2023/05/07 11:08:08;;;;;;;3.40;3.10;;;37.70;42.80;;;;;;4975377;28;20190;-72
2023/05/07 11:10:49;;;;;;;4.20;3.10;;;37.50;41.30;;;;;;4975397;28;20451;-72
2023/05/07 11:13:16;;;;;;;3.30;3.03;;;37.30;41.50;;;;;;4975787;28;20407;-72
2023/05/07 11:15:46;;;;;;;4.37;2.93;;;37.40;41.00;;;;;;4975389;28;20420;-72
2023/05/07 11:18:17;;;;;;;3.17;2.87;;;37.50;40.70;;;;;;4974533;28;20478;-73
2023/05/07 11:20:54;;;;;;;2.87;2.67;;;37.40;39.10;;;;;;4958052;28;20439;-72
2023/05/07 11:23:32;;;;;;;4.70;4.30;;;36.40;39.60;;;;;;4975484;28;20431;-73
2023/05/07 11:26:03;;;;;;;4.07;3.37;;;33.70;41.90;;;;;;4975289;28;20503;-72
2023/05/07 11:28:30;;;;;;;3.93;3.63;;;31.20;44.40;;;;;;4974902;28;20459;-73
2023/05/07 11:30:57;;;;;;;3.87;2.90;;;30.00;46.60;;;;;;4975155;28;20460;-72
2023/05/07 11:33:25;;;;;;;2.50;2.40;;;29.80;47.70;;;;;;4975439;28;21052;-74
2023/05/07 11:35:52;;;;;;;3.63;2.90;;;29.60;48.20;;;;;;4975157;28;20427;-74
2023/05/07 11:38:19;;;;;;;3.07;2.77;;;29.00;50.10;;;;;;4974663;28;20498;-74
2023/05/07 11:40:55;;;;;;;3.53;3.07;;;28.70;48.50;;;;;;4975018;28;20427;-74
2023/05/07 11:43:21;;;;;;;4.10;3.50;;;28.20;50.40;;;;;;4975006;28;20490;-74
2023/05/07 11:45:47;;;;;;;3.20;3.00;;;28.10;51.00;;;;;;4974968;28;20914;-75
2023/05/07 11:48:14;;;;;;;3.43;3.23;;;28.00;51.90;;;;;;4974385;28;20287;-75
2023/05/07 11:50:53;;;;;;;3.90;3.50;;;27.80;52.10;;;;;;4974821;28;20945;-74
2023/05/07 11:53:20;;;;;;;6.63;3.90;;;27.60;52.30;;;;;;4974845;28;20427;-75
2023/05/07 11:55:46;;;;;;;5.23;3.50;;;27.10;52.90;;;;;;4974801;28;20451;-75
2023/05/07 11:58:20;;;;;;;6.03;4.53;;;26.50;54.50;;;;;;4974404;28;20444;-75
2023/05/07 12:00:52;;;;;;;5.23;4.30;;;26.00;56.50;;;;;;4974737;28;20411;-73
2023/05/07 12:03:19;;;;;;;5.87;4.13;;;25.80;68.20;;;;;;4974636;28;20782;-73
2023/05/07 12:05:48;;;;;;;4.93;4.37;;;25.70;76.30;;;;;;4974471;28;20420;-73
2023/05/07 12:08:18;;;;;;;4.23;3.87;;;25.10;90.40;;;;;;4974056;28;20439;-73
2023/05/07 12:10:45;;;;;;;5.47;3.70;;;24.30;94.60;;;;;;4974388;28;20839;-73
2023/05/07 12:13:21;;;;;;;5.73;5.17;;;23.60;99.40;;;;;;4974458;28;20435;-73
2023/05/07 12:15:50;;;;;;;6.33;5.60;;;23.10;99.90;;;;;;4974461;28;20459;-74
2023/05/07 12:18:15;;;;;;;6.70;6.00;;;22.70;99.90;;;;;;4973764;28;20537;-75
2023/05/07 12:20:41;;;;;;;7.07;5.10;;;22.80;99.90;;;;;;4974236;28;20457;-74
2023/05/07 12:23:07;;;;;;;4.20;3.80;;;22.50;99.90;;;;;;4974270;28;20188;-72
2023/05/07 12:25:35;;;;;;;4.27;3.90;;;22.30;99.90;;;;;;4974367;28;20180;-72
2023/05/07 12:28:01;;;;;;;3.23;2.97;;;22.00;99.90;;;;;;4973990;28;20565;-72
2023/05/07 12:30:27;;;;;;;4.20;3.80;;;21.90;99.90;;;;;;4973756;28;20830;-73
2023/05/07 12:32:53;;;;;;;15.23;5.97;;;21.30;99.90;;;;;;4974062;28;20420;-74
2023/05/07 12:35:29;;;;;;;9.27;4.70;;;20.80;99.90;;;;;;4973980;28;20177;-74
2023/05/07 12:37:56;;;;;;;8.60;4.50;;;20.20;99.90;;;;;;4973874;28;20574;-74
2023/05/07 12:40:22;;;;;;;14.77;6.80;;;19.80;99.90;;;;;;4973661;28;20439;-74
2023/05/07 12:42:54;;;;;;;11.07;7.13;;;19.80;99.90;;;;;;4973738;28;20411;-74